sensor_id;sensor_type;location;lat;lon;timestamp;temperature;humidity
1083;DHT22;530;51.448;7.238;2023-10-13T00:01:48;17.50;99.90
1083;DHT22;530;51.448;7.238;2023-10-13T00:04:17;17.50;99.90
1083;DHT22;530;51.448;7.238;2023-10-13T00:06:47;17.60;99.90
1083;DHT22;530;51.448;7.238;2023-10-13T00:09:12;17.60;99.90
1083;DHT22;530;51.448;7.238;2023-10-13T00:11:43;17.60;99.90
1083;DHT22;530;51.448;7.238;2023-10-13T00:14:13;17.60;99.90
1083;DHT22;530;51.448;7.238;2023-10-13T00:16:43;17.60;99.90
1083;DHT22;530;51.448;7.238;2023-10-13T00:19:27;17.60;99.90
1083;DHT22;530;51.448;7.238;2023-10-13T00:21:53;17.50;99.90
1083;DHT22;530;51.448;7.238;2023-10-13T00:24:21;17.50;99.90
1083;DHT22;530;51.448;7.238;2023-10-13T00:26:49;17.50;99.90
1083;DHT22;530;51.448;7.238;2023-10-13T00:29:14;17.50;99.90
1083;DHT22;530;51.448;7.238;2023-10-13T00:31:43;17.50;99.90
1083;DHT22;530;51.448;7.238;2023-10-13T00:34:14;17.50;99.90
1083;DHT22;530;51.448;7.238;2023-10-13T00:36:57;17.50;99.90
1083;DHT22;530;51.448;7.238;2023-10-13T00:39:41;17.50;99.90
1083;DHT22;530;51.448;7.238;2023-10-13T00:42:14;17.50;99.90
1083;DHT22;530;51.448;7.238;2023-10-13T00:44:51;17.60;99.90
1083;DHT22;530;51.448;7.238;2023-10-13T00:47:20;17.60;99.90
1083;DHT22;530;51.448;7.238;2023-10-13T00:50:15;17.60;99.90
1083;DHT22;530;51.448;7.238;2023-10-13T00:52:44;17.60;99.90
1083;DHT22;530;51.448;7.238;2023-10-13T00:55:13;17.60;99.90
1083;DHT22;530;51.448;7.238;2023-10-13T00:57:40;17.60;99.90
1083;DHT22;530;51.448;7.238;2023-10-13T01:00:06;17.60;99.90
1083;DHT22;530;51.448;7.238;2023-10-13T01:02:45;17.60;99.90
1083;DHT22;530;51.448;7.238;2023-10-13T01:05:21;17.70;99.90
1083;DHT22;530;51.448;7.238;2023-10-13T01:07:47;17.70;99.90
1083;DHT22;530;51.448;7.238;2023-10-13T01:10:23;17.70;99.90
1083;DHT22;530;51.448;7.238;2023-10-13T01:12:55;17.70;99.90
1083;DHT22;530;51.448;7.238;2023-10-13T01:15:21;17.70;99.90
1083;DHT22;530;51.448;7.238;2023-10-13T01:17:48;17.70;99.90
1083;DHT22;530;51.448;7.238;2023-10-13T01:20:14;17.70;99.90
1083;DHT22;530;51.448;7.238;2023-10-13T01:22:51;17.70;99.90
1083;DHT22;530;51.448;7.238;2023-10-13T01:25:26;17.70;99.90
1083;DHT22;530;51.448;7.238;2023-10-13T01:27:53;17.70;99.90
1083;DHT22;530;51.448;7.238;2023-10-13T01:30:19;17.70;99.90
1083;DHT22;530;51.448;7.238;2023-10-13T01:32:52;17.60;99.90
1083;DHT22;530;51.448;7.238;2023-10-13T01:35:19;17.60;99.90
1083;DHT22;530;51.448;7.238;2023-10-13T01:37:51;17.60;99.90
1083;DHT22;530;51.448;7.238;2023-10-13T01:40:16;17.60;99.90
1083;DHT22;530;51.448;7.238;2023-10-13T01:42:46;17.60;99.90
1083;DHT22;530;51.448;7.238;2023-10-13T01:45:12;17.70;99.90
1083;DHT22;530;51.448;7.238;2023-10-13T01:47:39;17.70;99.90
1083;DHT22;530;51.448;7.238;2023-10-13T01:50:06;17.70;99.90
1083;DHT22;530;51.448;7.238;2023-10-13T01:52:47;17.70;99.90
1083;DHT22;530;51.448;7.238;2023-10-13T01:55:13;17.70;99.90
1083;DHT22;530;51.448;7.238;2023-10-13T01:57:39;17.70;99.90
1083;DHT22;530;51.448;7.238;2023-10-13T02:00:09;17.70;99.90
1083;DHT22;530;51.448;7.238;2023-10-13T02:02:47;17.70;99.90
1083;DHT22;530;51.448;7.238;2023-10-13T02:05:16;17.70;99.90
1083;DHT22;530;51.448;7.238;2023-10-13T02:07:43;17.70;99.90
1083;DHT22;530;51.448;7.238;2023-10-13T02:10:13;17.70;99.90
1083;DHT22;530;51.448;7.238;2023-10-13T02:12:39;17.70;99.90
1083;DHT22;530;51.448;7.238;2023-10-13T02:15:13;17.70;99.90
1083;DHT22;530;51.448;7.238;2023-10-13T02:17:52;17.70;99.90
1083;DHT22;530;51.448;7.238;2023-10-13T02:20:20;17.70;99.90
1083;DHT22;530;51.448;7.238;2023-10-13T02:22:49;17.70;99.90
1083;DHT22;530;51.448;7.238;2023-10-13T02:25:16;17.70;99.90
1083;DHT22;530;51.448;7.238;2023-10-13T02:28:00;17.70;99.90
1083;DHT22;530;51.448;7.238;2023-10-13T02:30:26;17.70;99.90
1083;DHT22;530;51.448;7.238;2023-10-13T02:32:54;17.70;99.90
1083;DHT22;530;51.448;7.238;2023-10-13T02:35:21;17.60;99.90
1083;DHT22;530;51.448;7.238;2023-10-13T02:37:55;17.70;99.90
1083;DHT22;530;51.448;7.238;2023-10-13T02:40:23;17.70;99.90
1083;DHT22;530;51.448;7.238;2023-10-13T02:42:49;17.70;99.90
1083;DHT22;530;51.448;7.238;2023-10-13T02:45:15;17.70;99.90
1083;DHT22;530;51.448;7.238;2023-10-13T02:47:41;17.70;99.90
1083;DHT22;530;51.448;7.238;2023-10-13T02:50:09;17.70;99.90
1083;DHT22;530;51.448;7.238;2023-10-13T02:52:38;17.70;99.90
1083;DHT22;530;51.448;7.238;2023-10-13T02:55:08;17.70;99.90
1083;DHT22;530;51.448;7.238;2023-10-13T02:57:36;17.70;99.90
1083;DHT22;530;51.448;7.238;2023-10-13T03:00:02;17.70;99.90
1083;DHT22;530;51.448;7.238;2023-10-13T03:02:47;17.70;99.90
1083;DHT22;530;51.448;7.238;2023-10-13T03:05:23;17.70;99.90
1083;DHT22;530;51.448;7.238;2023-10-13T03:07:49;17.70;99.90
1083;DHT22;530;51.448;7.238;2023-10-13T03:10:16;17.70;99.90
1083;DHT22;530;51.448;7.238;2023-10-13T03:12:44;17.70;99.90
1083;DHT22;530;51.448;7.238;2023-10-13T03:15:14;17.70;99.90
1083;DHT22;530;51.448;7.238;2023-10-13T03:17:54;17.70;99.90
1083;DHT22;530;51.448;7.238;2023-10-13T03:20:20;17.80;99.90
1083;DHT22;530;51.448;7.238;2023-10-13T03:22:56;17.80;99.90
1083;DHT22;530;51.448;7.238;2023-10-13T03:25:21;17.70;99.90
1083;DHT22;530;51.448;7.238;2023-10-13T03:28:08;17.70;99.90
1083;DHT22;530;51.448;7.238;2023-10-13T03:30:39;17.70;99.90
1083;DHT22;530;51.448;7.238;2023-10-13T03:33:08;17.70;99.90
1083;DHT22;530;51.448;7.238;2023-10-13T03:35:37;17.70;99.90
1083;DHT22;530;51.448;7.238;2023-10-13T03:38:04;17.70;99.90
1083;DHT22;530;51.448;7.238;2023-10-13T03:40:37;17.70;99.90
1083;DHT22;530;51.448;7.238;2023-10-13T03:43:03;17.70;99.90
1083;DHT22;530;51.448;7.238;2023-10-13T03:48:09;17.60;99.90
1083;DHT22;530;51.448;7.238;2023-10-13T03:50:39;17.60;99.90
1083;DHT22;530;51.448;7.238;2023-10-13T03:53:23;17.50;99.90
1083;DHT22;530;51.448;7.238;2023-10-13T03:55:51;17.60;99.90
1083;DHT22;530;51.448;7.238;2023-10-13T03:58:37;17.60;99.90
1083;DHT22;530;51.448;7.238;2023-10-13T04:01:04;17.60;99.90
1083;DHT22;530;51.448;7.238;2023-10-13T04:03:31;17.60;99.90
1083;DHT22;530;51.448;7.238;2023-10-13T04:06:25;17.60;99.90
1083;DHT22;530;51.448;7.238;2023-10-13T04:09:10;17.60;99.90
1083;DHT22;530;51.448;7.238;2023-10-13T04:12:04;17.50;99.90
1083;DHT22;530;51.448;7.238;2023-10-13T04:14:40;17.50;99.90
1083;DHT22;530;51.448;7.238;2023-10-13T04:17:24;17.50;99.90
1083;DHT22;530;51.448;7.238;2023-10-13T04:19:56;17.50;99.90
1083;DHT22;530;51.448;7.238;2023-10-13T04:22:42;17.60;99.90
1083;DHT22;530;51.448;7.238;2023-10-13T04:25:27;17.60;99.90
1083;DHT22;530;51.448;7.238;2023-10-13T04:28:15;17.60;99.90
1083;DHT22;530;51.448;7.238;2023-10-13T04:31:00;17.60;99.90
1083;DHT22;530;51.448;7.238;2023-10-13T04:33:38;17.60;99.90
1083;DHT22;530;51.448;7.238;2023-10-13T04:36:30;17.50;99.90
1083;DHT22;530;51.448;7.238;2023-10-13T04:38:58;17.60;99.90
1083;DHT22;530;51.448;7.238;2023-10-13T04:44:02;17.60;99.90
1083;DHT22;530;51.448;7.238;2023-10-13T04:46:49;17.70;99.90
1083;DHT22;530;51.448;7.238;2023-10-13T04:49:14;17.60;99.90
1083;DHT22;530;51.448;7.238;2023-10-13T04:52:15;17.70;99.90
1083;DHT22;530;51.448;7.238;2023-10-13T04:55:01;17.70;99.90
1083;DHT22;530;51.448;7.238;2023-10-13T04:58:02;17.70;99.90
1083;DHT22;530;51.448;7.238;2023-10-13T05:00:40;17.70;99.90
1083;DHT22;530;51.448;7.238;2023-10-13T05:03:21;17.70;99.90
1083;DHT22;530;51.448;7.238;2023-10-13T05:06:06;17.70;99.90
1083;DHT22;530;51.448;7.238;2023-10-13T05:08:57;17.70;99.90
1083;DHT22;530;51.448;7.238;2023-10-13T05:11:41;17.80;99.90
1083;DHT22;530;51.448;7.238;2023-10-13T05:14:33;17.70;99.90
1083;DHT22;530;51.448;7.238;2023-10-13T05:17:18;17.80;99.90
1083;DHT22;530;51.448;7.238;2023-10-13T05:20:02;17.80;99.90
1083;DHT22;530;51.448;7.238;2023-10-13T05:22:46;17.80;99.90
1083;DHT22;530;51.448;7.238;2023-10-13T05:25:35;17.70;99.90
1083;DHT22;530;51.448;7.238;2023-10-13T05:28:19;17.80;99.90
1083;DHT22;530;51.448;7.238;2023-10-13T05:31:03;17.80;99.90
1083;DHT22;530;51.448;7.238;2023-10-13T05:34:04;17.80;99.90
1083;DHT22;530;51.448;7.238;2023-10-13T05:36:49;17.70;99.90
1083;DHT22;530;51.448;7.238;2023-10-13T05:39:33;17.80;99.90
1083;DHT22;530;51.448;7.238;2023-10-13T05:42:18;17.80;99.90
1083;DHT22;530;51.448;7.238;2023-10-13T05:45:02;17.80;99.90
1083;DHT22;530;51.448;7.238;2023-10-13T05:47:43;17.80;99.90
1083;DHT22;530;51.448;7.238;2023-10-13T05:50:10;17.80;99.90
1083;DHT22;530;51.448;7.238;2023-10-13T05:52:49;17.80;99.90
1083;DHT22;530;51.448;7.238;2023-10-13T05:55:28;17.80;99.90
1083;DHT22;530;51.448;7.238;2023-10-13T05:58:13;17.80;99.90
1083;DHT22;530;51.448;7.238;2023-10-13T06:00:57;17.70;99.90
1083;DHT22;530;51.448;7.238;2023-10-13T06:03:41;17.80;99.90
1083;DHT22;530;51.448;7.238;2023-10-13T06:06:26;17.80;99.90
1083;DHT22;530;51.448;7.238;2023-10-13T06:09:10;17.80;99.90
1083;DHT22;530;51.448;7.238;2023-10-13T06:11:54;17.80;99.90
1083;DHT22;530;51.448;7.238;2023-10-13T06:14:39;17.80;99.90
1083;DHT22;530;51.448;7.238;2023-10-13T06:17:23;17.90;99.90
1083;DHT22;530;51.448;7.238;2023-10-13T06:20:07;17.90;99.90
1083;DHT22;530;51.448;7.238;2023-10-13T06:22:52;17.90;99.90
1083;DHT22;530;51.448;7.238;2023-10-13T06:25:37;17.90;99.90
1083;DHT22;530;51.448;7.238;2023-10-13T06:28:22;17.90;99.90
1083;DHT22;530;51.448;7.238;2023-10-13T06:31:06;17.80;99.90
1083;DHT22;530;51.448;7.238;2023-10-13T06:33:33;17.80;99.90
1083;DHT22;530;51.448;7.238;2023-10-13T06:36:03;17.80;99.90
1083;DHT22;530;51.448;7.238;2023-10-13T06:38:29;17.80;99.90
1083;DHT22;530;51.448;7.238;2023-10-13T06:41:18;17.80;99.90
1083;DHT22;530;51.448;7.238;2023-10-13T06:43:56;17.80;99.90
1083;DHT22;530;51.448;7.238;2023-10-13T06:46:30;17.90;99.90
1083;DHT22;530;51.448;7.238;2023-10-13T06:48:59;17.90;99.90
1083;DHT22;530;51.448;7.238;2023-10-13T06:51:25;17.90;99.90
1083;DHT22;530;51.448;7.238;2023-10-13T06:53:56;17.90;99.90
1083;DHT22;530;51.448;7.238;2023-10-13T06:56:22;17.90;99.90
1083;DHT22;530;51.448;7.238;2023-10-13T06:58:53;17.90;99.90
1083;DHT22;530;51.448;7.238;2023-10-13T07:01:28;18.00;99.90
1083;DHT22;530;51.448;7.238;2023-10-13T07:03:54;18.00;99.90
1083;DHT22;530;51.448;7.238;2023-10-13T07:06:27;18.00;99.90
1083;DHT22;530;51.448;7.238;2023-10-13T07:08:52;18.00;99.90
1083;DHT22;530;51.448;7.238;2023-10-13T07:11:25;18.10;99.90
1083;DHT22;530;51.448;7.238;2023-10-13T07:14:03;18.10;99.90
1083;DHT22;530;51.448;7.238;2023-10-13T07:16:56;18.00;99.90
1083;DHT22;530;51.448;7.238;2023-10-13T07:19:26;18.00;99.90
1083;DHT22;530;51.448;7.238;2023-10-13T07:21:58;18.00;99.90
1083;DHT22;530;51.448;7.238;2023-10-13T07:24:28;18.00;99.90
1083;DHT22;530;51.448;7.238;2023-10-13T07:26:58;18.10;99.90
1083;DHT22;530;51.448;7.238;2023-10-13T07:29:33;18.10;99.90
1083;DHT22;530;51.448;7.238;2023-10-13T07:32:02;18.10;99.90
1083;DHT22;530;51.448;7.238;2023-10-13T07:34:31;18.10;99.90
1083;DHT22;530;51.448;7.238;2023-10-13T07:37:01;18.20;99.90
1083;DHT22;530;51.448;7.238;2023-10-13T07:39:30;18.20;99.90
1083;DHT22;530;51.448;7.238;2023-10-13T07:42:00;18.20;99.90
1083;DHT22;530;51.448;7.238;2023-10-13T07:44:45;18.30;99.90
1083;DHT22;530;51.448;7.238;2023-10-13T07:47:14;18.30;99.90
1083;DHT22;530;51.448;7.238;2023-10-13T07:49:40;18.40;99.90
1083;DHT22;530;51.448;7.238;2023-10-13T07:52:08;18.40;99.90
1083;DHT22;530;51.448;7.238;2023-10-13T07:54:48;18.40;99.90
1083;DHT22;530;51.448;7.238;2023-10-13T07:57:21;18.40;99.90
1083;DHT22;530;51.448;7.238;2023-10-13T07:59:55;18.50;99.90
1083;DHT22;530;51.448;7.238;2023-10-13T08:02:32;18.60;99.90
1083;DHT22;530;51.448;7.238;2023-10-13T08:05:17;18.60;99.90
1083;DHT22;530;51.448;7.238;2023-10-13T08:08:05;18.70;99.90
1083;DHT22;530;51.448;7.238;2023-10-13T08:10:40;18.70;99.90
1083;DHT22;530;51.448;7.238;2023-10-13T08:13:11;18.70;99.90
1083;DHT22;530;51.448;7.238;2023-10-13T08:15:42;18.60;99.90
1083;DHT22;530;51.448;7.238;2023-10-13T08:18:16;18.70;99.90
1083;DHT22;530;51.448;7.238;2023-10-13T08:21:10;18.70;99.90
1083;DHT22;530;51.448;7.238;2023-10-13T08:23:41;18.80;99.90
1083;DHT22;530;51.448;7.238;2023-10-13T08:26:20;18.90;99.90
1083;DHT22;530;51.448;7.238;2023-10-13T08:29:02;19.00;99.90
1083;DHT22;530;51.448;7.238;2023-10-13T08:31:51;19.20;99.90
1083;DHT22;530;51.448;7.238;2023-10-13T08:34:36;19.40;99.90
1083;DHT22;530;51.448;7.238;2023-10-13T08:37:14;19.60;99.90
1083;DHT22;530;51.448;7.238;2023-10-13T08:39:59;19.80;99.90
1083;DHT22;530;51.448;7.238;2023-10-13T08:42:37;20.00;99.90
1083;DHT22;530;51.448;7.238;2023-10-13T08:45:09;20.10;99.90
1083;DHT22;530;51.448;7.238;2023-10-13T08:47:56;20.00;99.90
1083;DHT22;530;51.448;7.238;2023-10-13T08:50:43;20.20;99.90
1083;DHT22;530;51.448;7.238;2023-10-13T08:53:27;20.30;99.90
1083;DHT22;530;51.448;7.238;2023-10-13T08:58:28;20.40;99.90
1083;DHT22;530;51.448;7.238;2023-10-13T09:01:13;20.50;99.90
1083;DHT22;530;51.448;7.238;2023-10-13T09:03:59;20.70;99.90
1083;DHT22;530;51.448;7.238;2023-10-13T09:09:13;20.70;99.90
1083;DHT22;530;51.448;7.238;2023-10-13T09:12:16;20.70;99.90
1083;DHT22;530;51.448;7.238;2023-10-13T09:14:51;20.60;99.90
1083;DHT22;530;51.448;7.238;2023-10-13T09:17:28;20.60;99.90
1083;DHT22;530;51.448;7.238;2023-10-13T09:20:01;20.60;99.90
1083;DHT22;530;51.448;7.238;2023-10-13T09:22:46;20.80;99.90
1083;DHT22;530;51.448;7.238;2023-10-13T09:25:28;21.00;99.90
1083;DHT22;530;51.448;7.238;2023-10-13T09:28:12;21.20;99.90
1083;DHT22;530;51.448;7.238;2023-10-13T09:30:51;21.40;99.90
1083;DHT22;530;51.448;7.238;2023-10-13T09:33:36;21.60;99.90
1083;DHT22;530;51.448;7.238;2023-10-13T09:36:03;21.70;99.90
1083;DHT22;530;51.448;7.238;2023-10-13T09:38:36;21.90;99.90
1083;DHT22;530;51.448;7.238;2023-10-13T09:41:07;21.90;99.90
1083;DHT22;530;51.448;7.238;2023-10-13T09:43:52;21.90;99.90
1083;DHT22;530;51.448;7.238;2023-10-13T09:46:21;22.00;99.90
1083;DHT22;530;51.448;7.238;2023-10-13T09:48:57;22.10;99.90
1083;DHT22;530;51.448;7.238;2023-10-13T09:51:40;22.20;99.90
1083;DHT22;530;51.448;7.238;2023-10-13T09:56:57;22.40;99.90
1083;DHT22;530;51.448;7.238;2023-10-13T09:59:42;22.40;99.90
1083;DHT22;530;51.448;7.238;2023-10-13T10:02:17;22.50;99.90
1083;DHT22;530;51.448;7.238;2023-10-13T10:05:00;22.60;99.90
1083;DHT22;530;51.448;7.238;2023-10-13T10:07:56;22.60;99.90
1083;DHT22;530;51.448;7.238;2023-10-13T10:10:52;22.50;99.90
1083;DHT22;530;51.448;7.238;2023-10-13T10:13:32;22.60;99.90
1083;DHT22;530;51.448;7.238;2023-10-13T10:16:15;22.60;99.90
1083;DHT22;530;51.448;7.238;2023-10-13T10:18:45;22.60;99.90
1083;DHT22;530;51.448;7.238;2023-10-13T10:21:11;22.60;99.90
1083;DHT22;530;51.448;7.238;2023-10-13T10:23:37;22.40;99.90
1083;DHT22;530;51.448;7.238;2023-10-13T10:26:13;22.40;99.90
1083;DHT22;530;51.448;7.238;2023-10-13T10:28:42;22.40;99.90
1083;DHT22;530;51.448;7.238;2023-10-13T10:31:10;22.40;99.90
1083;DHT22;530;51.448;7.238;2023-10-13T10:33:47;22.30;99.90
1083;DHT22;530;51.448;7.238;2023-10-13T10:36:28;22.30;99.90
1083;DHT22;530;51.448;7.238;2023-10-13T10:38:56;22.20;99.90
1083;DHT22;530;51.448;7.238;2023-10-13T10:41:29;22.20;99.90
1083;DHT22;530;51.448;7.238;2023-10-13T10:44:18;22.10;99.90
1083;DHT22;530;51.448;7.238;2023-10-13T10:47:13;22.10;99.90
1083;DHT22;530;51.448;7.238;2023-10-13T10:49:58;22.00;99.90
1083;DHT22;530;51.448;7.238;2023-10-13T10:52:27;22.10;99.90
1083;DHT22;530;51.448;7.238;2023-10-13T10:55:01;22.10;99.90
1083;DHT22;530;51.448;7.238;2023-10-13T10:57:27;22.00;99.90
1083;DHT22;530;51.448;7.238;2023-10-13T11:00:05;22.00;99.90
1083;DHT22;530;51.448;7.238;2023-10-13T11:02:38;22.10;99.90
1083;DHT22;530;51.448;7.238;2023-10-13T11:05:04;22.10;99.90
1083;DHT22;530;51.448;7.238;2023-10-13T11:07:32;22.10;99.90
1083;DHT22;530;51.448;7.238;2023-10-13T11:10:18;22.10;99.90
1083;DHT22;530;51.448;7.238;2023-10-13T11:13:00;22.10;99.90
1083;DHT22;530;51.448;7.238;2023-10-13T11:15:42;22.20;99.90
1083;DHT22;530;51.448;7.238;2023-10-13T11:18:10;22.20;99.90
1083;DHT22;530;51.448;7.238;2023-10-13T11:20:43;22.20;99.90
1083;DHT22;530;51.448;7.238;2023-10-13T11:23:13;22.30;99.90
1083;DHT22;530;51.448;7.238;2023-10-13T11:25:41;22.20;99.90
1083;DHT22;530;51.448;7.238;2023-10-13T11:28:13;22.30;99.90
1083;DHT22;530;51.448;7.238;2023-10-13T11:30:49;22.30;99.90
1083;DHT22;530;51.448;7.238;2023-10-13T11:33:18;22.30;99.90
1083;DHT22;530;51.448;7.238;2023-10-13T11:35:47;22.30;99.90
1083;DHT22;530;51.448;7.238;2023-10-13T11:38:22;22.20;99.90
1083;DHT22;530;51.448;7.238;2023-10-13T11:41:04;22.20;99.90
1083;DHT22;530;51.448;7.238;2023-10-13T11:46:01;22.20;99.90
1083;DHT22;530;51.448;7.238;2023-10-13T11:48:36;22.30;99.90
1083;DHT22;530;51.448;7.238;2023-10-13T11:53:37;22.40;99.90
1083;DHT22;530;51.448;7.238;2023-10-13T11:56:04;22.60;99.90
1083;DHT22;530;51.448;7.238;2023-10-13T11:58:37;22.80;99.90
1083;DHT22;530;51.448;7.238;2023-10-13T12:01:03;22.90;99.90
1083;DHT22;530;51.448;7.238;2023-10-13T12:03:42;23.00;99.90
1083;DHT22;530;51.448;7.238;2023-10-13T12:06:27;23.20;99.90
1083;DHT22;530;51.448;7.238;2023-10-13T12:09:07;23.40;99.90
1083;DHT22;530;51.448;7.238;2023-10-13T12:11:46;23.50;99.90
1083;DHT22;530;51.448;7.238;2023-10-13T12:14:13;23.60;99.90
1083;DHT22;530;51.448;7.238;2023-10-13T12:16:49;23.70;99.90
1083;DHT22;530;51.448;7.238;2023-10-13T12:19:20;23.80;99.90
1083;DHT22;530;51.448;7.238;2023-10-13T12:21:52;23.90;99.90
1083;DHT22;530;51.448;7.238;2023-10-13T12:24:26;24.00;99.90
1083;DHT22;530;51.448;7.238;2023-10-13T12:27:04;24.10;99.90
1083;DHT22;530;51.448;7.238;2023-10-13T12:29:51;24.10;99.90
1083;DHT22;530;51.448;7.238;2023-10-13T12:32:18;24.20;99.90
1083;DHT22;530;51.448;7.238;2023-10-13T12:34:56;24.30;99.90
1083;DHT22;530;51.448;7.238;2023-10-13T12:37:42;24.30;99.90
1083;DHT22;530;51.448;7.238;2023-10-13T12:40:12;24.40;99.90
1083;DHT22;530;51.448;7.238;2023-10-13T12:42:57;24.40;99.90
1083;DHT22;530;51.448;7.238;2023-10-13T12:45:42;24.50;99.90
1083;DHT22;530;51.448;7.238;2023-10-13T12:48:27;24.40;99.90
1083;DHT22;530;51.448;7.238;2023-10-13T12:51:12;24.30;99.90
1083;DHT22;530;51.448;7.238;2023-10-13T12:53:51;24.20;99.90
1083;DHT22;530;51.448;7.238;2023-10-13T12:56:18;24.10;99.90
1083;DHT22;530;51.448;7.238;2023-10-13T12:58:51;24.00;99.90
1083;DHT22;530;51.448;7.238;2023-10-13T13:01:21;23.90;99.90
1083;DHT22;530;51.448;7.238;2023-10-13T13:03:48;23.80;99.90
1083;DHT22;530;51.448;7.238;2023-10-13T13:06:22;23.70;99.90
1083;DHT22;530;51.448;7.238;2023-10-13T13:08:53;23.60;99.90
1083;DHT22;530;51.448;7.238;2023-10-13T13:11:20;23.50;99.90
1083;DHT22;530;51.448;7.238;2023-10-13T13:13:46;23.40;99.90
1083;DHT22;530;51.448;7.238;2023-10-13T13:16:19;23.40;99.90
1083;DHT22;530;51.448;7.238;2023-10-13T13:18:50;23.40;99.90
1083;DHT22;530;51.448;7.238;2023-10-13T13:21:15;23.50;99.90
1083;DHT22;530;51.448;7.238;2023-10-13T13:23:53;23.40;99.90
1083;DHT22;530;51.448;7.238;2023-10-13T13:26:24;23.40;99.90
1083;DHT22;530;51.448;7.238;2023-10-13T13:28:51;23.30;99.90
1083;DHT22;530;51.448;7.238;2023-10-13T13:31:17;23.20;99.90
1083;DHT22;530;51.448;7.238;2023-10-13T13:33:43;23.20;99.90
1083;DHT22;530;51.448;7.238;2023-10-13T13:36:12;23.20;99.90
1083;DHT22;530;51.448;7.238;2023-10-13T13:38:44;23.10;99.90
1083;DHT22;530;51.448;7.238;2023-10-13T13:41:16;23.10;99.90
1083;DHT22;530;51.448;7.238;2023-10-13T13:43:49;23.20;99.90
1083;DHT22;530;51.448;7.238;2023-10-13T13:46:19;23.20;99.90
1083;DHT22;530;51.448;7.238;2023-10-13T13:48:45;23.30;99.90
1083;DHT22;530;51.448;7.238;2023-10-13T13:51:14;23.30;99.90
1083;DHT22;530;51.448;7.238;2023-10-13T13:53:43;23.30;99.90
1083;DHT22;530;51.448;7.238;2023-10-13T13:56:14;23.30;99.90
1083;DHT22;530;51.448;7.238;2023-10-13T13:58:43;23.20;99.90
1083;DHT22;530;51.448;7.238;2023-10-13T14:01:09;23.10;99.90
1083;DHT22;530;51.448;7.238;2023-10-13T14:03:48;23.10;99.90
1083;DHT22;530;51.448;7.238;2023-10-13T14:06:25;23.00;99.90
1083;DHT22;530;51.448;7.238;2023-10-13T14:08:54;22.90;99.90
1083;DHT22;530;51.448;7.238;2023-10-13T14:11:26;22.90;99.90
1083;DHT22;530;51.448;7.238;2023-10-13T14:14:14;22.90;99.90
1083;DHT22;530;51.448;7.238;2023-10-13T14:16:53;22.90;99.90
1083;DHT22;530;51.448;7.238;2023-10-13T14:19:19;22.90;99.90
1083;DHT22;530;51.448;7.238;2023-10-13T14:21:55;22.90;99.90
1083;DHT22;530;51.448;7.238;2023-10-13T14:24:22;23.00;99.90
1083;DHT22;530;51.448;7.238;2023-10-13T14:26:59;23.00;99.90
1083;DHT22;530;51.448;7.238;2023-10-13T14:29:36;23.00;99.90
1083;DHT22;530;51.448;7.238;2023-10-13T14:32:12;22.90;99.90
1083;DHT22;530;51.448;7.238;2023-10-13T14:34:43;22.90;99.90
1083;DHT22;530;51.448;7.238;2023-10-13T14:37:10;22.80;99.90
1083;DHT22;530;51.448;7.238;2023-10-13T14:39:39;22.80;99.90
1083;DHT22;530;51.448;7.238;2023-10-13T14:42:05;22.80;99.90
1083;DHT22;530;51.448;7.238;2023-10-13T14:44:34;22.80;99.90
1083;DHT22;530;51.448;7.238;2023-10-13T14:47:01;22.70;99.90
1083;DHT22;530;51.448;7.238;2023-10-13T14:49:27;22.70;99.90
1083;DHT22;530;51.448;7.238;2023-10-13T14:51:53;22.60;99.90
1083;DHT22;530;51.448;7.238;2023-10-13T14:54:21;22.60;99.90
1083;DHT22;530;51.448;7.238;2023-10-13T14:57:00;22.50;99.90
1083;DHT22;530;51.448;7.238;2023-10-13T14:59:26;22.50;99.90
1083;DHT22;530;51.448;7.238;2023-10-13T15:01:53;22.40;99.90
1083;DHT22;530;51.448;7.238;2023-10-13T15:04:19;22.40;99.90
1083;DHT22;530;51.448;7.238;2023-10-13T15:06:50;22.40;99.90
1083;DHT22;530;51.448;7.238;2023-10-13T15:09:15;22.30;99.90
1083;DHT22;530;51.448;7.238;2023-10-13T15:11:49;22.30;99.90
1083;DHT22;530;51.448;7.238;2023-10-13T15:14:18;22.30;99.90
1083;DHT22;530;51.448;7.238;2023-10-13T15:16:46;22.30;99.90
1083;DHT22;530;51.448;7.238;2023-10-13T15:19:12;22.20;99.90
1083;DHT22;530;51.448;7.238;2023-10-13T15:21:38;22.20;99.90
1083;DHT22;530;51.448;7.238;2023-10-13T15:24:06;22.20;99.90
1083;DHT22;530;51.448;7.238;2023-10-13T15:26:51;22.20;99.90
1083;DHT22;530;51.448;7.238;2023-10-13T15:29:22;22.10;99.90
1083;DHT22;530;51.448;7.238;2023-10-13T15:31:52;22.10;99.90
1083;DHT22;530;51.448;7.238;2023-10-13T15:34:24;22.10;99.90
1083;DHT22;530;51.448;7.238;2023-10-13T15:36:52;22.00;99.90
1083;DHT22;530;51.448;7.238;2023-10-13T15:39:20;22.00;99.90
1083;DHT22;530;51.448;7.238;2023-10-13T15:41:53;22.00;99.90
1083;DHT22;530;51.448;7.238;2023-10-13T15:44:20;22.00;99.90
1083;DHT22;530;51.448;7.238;2023-10-13T15:46:46;22.00;99.90
1083;DHT22;530;51.448;7.238;2023-10-13T15:49:15;22.00;99.90
1083;DHT22;530;51.448;7.238;2023-10-13T15:51:41;22.00;99.90
1083;DHT22;530;51.448;7.238;2023-10-13T15:54:07;21.90;99.90
1083;DHT22;530;51.448;7.238;2023-10-13T15:56:46;22.00;99.90
1083;DHT22;530;51.448;7.238;2023-10-13T15:59:13;21.90;99.90
1083;DHT22;530;51.448;7.238;2023-10-13T16:01:39;21.90;99.90
1083;DHT22;530;51.448;7.238;2023-10-13T16:04:09;21.90;99.90
1083;DHT22;530;51.448;7.238;2023-10-13T16:06:46;21.90;99.90
1083;DHT22;530;51.448;7.238;2023-10-13T16:09:15;21.90;99.90
1083;DHT22;530;51.448;7.238;2023-10-13T16:11:45;21.90;99.90
1083;DHT22;530;51.448;7.238;2023-10-13T16:14:12;21.80;99.90
1083;DHT22;530;51.448;7.238;2023-10-13T16:16:44;21.80;99.90
1083;DHT22;530;51.448;7.238;2023-10-13T16:19:16;21.80;99.90
1083;DHT22;530;51.448;7.238;2023-10-13T16:21:53;21.80;99.90
1083;DHT22;530;51.448;7.238;2023-10-13T16:24:19;21.70;99.90
1083;DHT22;530;51.448;7.238;2023-10-13T16:26:49;21.70;99.90
1083;DHT22;530;51.448;7.238;2023-10-13T16:29:20;21.70;99.90
1083;DHT22;530;51.448;7.238;2023-10-13T16:31:46;21.70;99.90
1083;DHT22;530;51.448;7.238;2023-10-13T16:34:13;21.70;99.90
1083;DHT22;530;51.448;7.238;2023-10-13T16:36:44;21.60;99.90
1083;DHT22;530;51.448;7.238;2023-10-13T16:39:11;21.60;99.90
1083;DHT22;530;51.448;7.238;2023-10-13T16:41:37;21.60;99.90
1083;DHT22;530;51.448;7.238;2023-10-13T16:44:02;21.60;99.90
1083;DHT22;530;51.448;7.238;2023-10-13T16:46:35;21.60;99.90
1083;DHT22;530;51.448;7.238;2023-10-13T16:49:02;21.60;99.90
1083;DHT22;530;51.448;7.238;2023-10-13T16:51:28;21.60;99.90
1083;DHT22;530;51.448;7.238;2023-10-13T16:53:55;21.50;99.90
1083;DHT22;530;51.448;7.238;2023-10-13T16:56:21;21.50;99.90
1083;DHT22;530;51.448;7.238;2023-10-13T16:58:47;21.50;99.90
1083;DHT22;530;51.448;7.238;2023-10-13T17:01:14;21.50;99.90
1083;DHT22;530;51.448;7.238;2023-10-13T17:03:42;21.40;99.90
1083;DHT22;530;51.448;7.238;2023-10-13T17:06:10;21.40;99.90
1083;DHT22;530;51.448;7.238;2023-10-13T17:08:38;21.40;99.90
1083;DHT22;530;51.448;7.238;2023-10-13T17:11:12;21.30;99.90
1083;DHT22;530;51.448;7.238;2023-10-13T17:13:42;21.30;99.90
1083;DHT22;530;51.448;7.238;2023-10-13T17:16:13;21.30;99.90
1083;DHT22;530;51.448;7.238;2023-10-13T17:18:39;21.30;99.90
1083;DHT22;530;51.448;7.238;2023-10-13T17:21:20;21.30;99.90